Time;durP1;ratioP1;P1;durP2;ratioP2;P2;SDS_P1;SDS_P2;PMS_P1;PMS_P2;Temp;Humidity;BMP_temperature;BMP_pressure;BME280_temperature;BME280_humidity;BME280_pressure;Samples;Min_cycle;Max_cycle;Signal;HPM_P1;HPM_P2
2022/10/27 00:01:40;;;;;;;12.25;6.45;;;;;;;14.37;56.23;102206.63;7392590;19;19998;-58
2022/10/27 00:04:06;;;;;;;11.90;6.55;;;;;;;14.32;56.35;102215.06;7391896;19;20010;-58
2022/10/27 00:06:33;;;;;;;11.60;6.50;;;;;;;14.27;56.34;102220.75;7391184;19;19991;-58
2022/10/27 00:08:58;;;;;;;12.95;7.07;;;;;;;14.19;56.39;102223.19;7390249;19;20483;-58
2022/10/27 00:11:24;;;;;;;11.32;6.50;;;;;;;14.20;56.29;102226.78;7391514;19;20027;-58
2022/10/27 00:13:49;;;;;;;12.60;6.90;;;;;;;14.34;55.96;102227.31;7391981;19;20017;-58
2022/10/27 00:16:17;;;;;;;14.02;6.70;;;;;;;14.42;56.15;102226.47;7389520;19;19995;-59
2022/10/27 00:18:44;;;;;;;15.45;7.20;;;;;;;14.51;56.20;102231.09;7388625;19;20003;-59
2022/10/27 00:21:15;;;;;;;13.00;6.53;;;;;;;14.57;55.95;102235.25;7388281;19;20475;-58
2022/10/27 00:23:41;;;;;;;12.65;6.95;;;;;;;14.53;56.03;102231.56;7389362;19;20009;-58
2022/10/27 00:26:10;;;;;;;14.82;6.97;;;;;;;14.44;56.02;102246.19;7389071;19;20066;-58
2022/10/27 00:28:36;;;;;;;15.52;7.15;;;;;;;14.36;56.39;102238.81;7388206;19;20455;-59
2022/10/27 00:31:07;;;;;;;15.07;6.43;;;;;;;14.25;56.42;102243.06;7389137;19;20011;-57
2022/10/27 00:33:33;;;;;;;14.85;5.95;;;;;;;14.22;56.45;102236.28;7389428;19;20009;-57
2022/10/27 00:36:06;;;;;;;12.82;6.85;;;;;;;14.23;56.43;102246.13;7393906;19;20293;-58
2022/10/27 00:38:33;;;;;;;13.00;6.00;;;;;;;14.21;56.10;102251.16;7397027;19;19999;-58
2022/10/27 00:41:00;;;;;;;12.98;6.47;;;;;;;14.19;56.03;102249.88;7396115;19;20050;-57
2022/10/27 00:43:32;;;;;;;12.70;6.43;;;;;;;14.12;56.14;102253.13;7397921;19;20005;-58
2022/10/27 00:46:05;;;;;;;14.93;6.03;;;;;;;14.11;56.29;102258.94;7396575;19;19990;-57
2022/10/27 00:48:31;;;;;;;;;;;;;;;14.01;56.15;102260.13;7396229;19;20009;-57
2022/10/27 00:51:01;;;;;;;13.95;6.05;;;;;;;14.03;56.37;102253.19;7395714;19;19913;-57
2022/10/27 00:53:27;;;;;;;13.02;6.90;;;;;;;14.02;56.10;102267.22;7398238;19;20003;-57
2022/10/27 00:55:52;;;;;;;11.52;6.95;;;;;;;14.03;55.87;102266.91;7399269;19;20408;-58
2022/10/27 00:58:20;;;;;;;12.55;6.10;;;;;;;14.00;56.10;102266.75;7394296;19;20006;-57
2022/10/27 01:00:46;;;;;;;12.60;6.32;;;;;;;13.98;56.14;102272.56;7393237;19;20343;-58
2022/10/27 01:03:15;;;;;;;10.40;5.68;;;;;;;13.95;55.98;102266.94;7396062;19;20018;-58
2022/10/27 01:05:42;;;;;;;14.73;7.28;;;;;;;13.95;55.99;102275.97;7397702;19;19999;-57
2022/10/27 01:08:07;;;;;;;11.73;6.07;;;;;;;14.10;55.74;102276.56;7394964;19;20474;-57
2022/10/27 01:10:33;;;;;;;12.60;5.97;;;;;;;14.16;55.87;102273.31;7395296;19;19995;-58
2022/10/27 01:12:59;;;;;;;10.55;5.93;;;;;;;14.12;55.73;102277.03;7396250;19;20009;-57
2022/10/27 01:15:36;;;;;;;14.38;6.90;;;;;;;14.11;55.53;102281.75;7396733;19;19998;-58
2022/10/27 01:18:23;;;;;;;9.88;5.90;;;;;;;14.10;55.74;102284.81;7396236;19;20007;-58
2022/10/27 01:21:13;;;;;;;14.80;6.78;;;;;;;14.12;55.69;102285.28;7394532;19;20002;-57
2022/10/27 01:24:02;;;;;;;11.27;5.95;;;;;;;14.20;55.92;102278.94;7397120;19;20320;-58
2022/10/27 01:26:37;;;;;;;10.85;5.57;;;;;;;14.18;55.54;102284.75;7396784;19;19999;-58
2022/10/27 01:29:14;;;;;;;13.35;6.20;;;;;;;14.17;55.62;102290.59;7394519;19;20343;-58
2022/10/27 01:31:46;;;;;;;14.48;6.85;;;;;;;14.25;55.69;102298.78;7394591;19;20455;-58
2022/10/27 01:34:25;;;;;;;13.82;6.40;;;;;;;14.29;55.80;102304.41;7396961;19;20007;-58
2022/10/27 01:36:58;;;;;;;14.75;6.57;;;;;;;14.35;55.69;102294.84;7395818;19;20463;-58
2022/10/27 01:39:30;;;;;;;11.68;6.05;;;;;;;14.36;55.91;102301.16;7394294;19;20013;-58
2022/10/27 01:42:20;;;;;;;11.18;6.47;;;;;;;14.41;56.00;102298.22;7395715;19;19998;-59
2022/10/27 01:44:51;;;;;;;14.32;6.47;;;;;;;14.36;56.19;102301.97;7396299;19;20025;-59
2022/10/27 01:47:17;;;;;;;12.77;6.00;;;;;;;14.42;56.13;102299.84;7395004;19;20006;-59
2022/10/27 01:49:43;;;;;;;14.35;6.40;;;;;;;14.44;55.84;102301.13;7392080;19;20003;-59
2022/10/27 01:52:36;;;;;;;12.85;6.25;;;;;;;14.47;55.86;102310.63;7393400;19;20010;-58
2022/10/27 01:55:02;;;;;;;15.67;6.17;;;;;;;14.49;55.88;102302.06;7396052;19;20001;-58
2022/10/27 01:57:51;;;;;;;14.95;6.30;;;;;;;14.52;56.03;102306.91;7395126;19;19998;-58
2022/10/27 02:00:17;;;;;;;12.70;5.97;;;;;;;14.55;55.68;102308.97;7393227;19;19998;-58
2022/10/27 02:03:00;;;;;;;12.40;6.22;;;;;;;14.50;56.24;102317.41;7395056;19;20006;-59
2022/10/27 02:05:57;;;;;;;13.40;6.17;;;;;;;14.49;56.24;102316.59;7395396;19;19991;-58
2022/10/27 02:08:32;;;;;;;15.70;6.57;;;;;;;14.53;56.16;102312.06;7392018;19;19998;-58
2022/10/27 02:11:03;;;;;;;12.27;6.22;;;;;;;14.55;55.97;102322.72;7393748;19;20026;-58
2022/10/27 02:13:31;;;;;;;12.85;5.82;;;;;;;14.52;56.12;102317.88;7394635;19;20025;-59
2022/10/27 02:16:04;;;;;;;19.13;5.65;;;;;;;14.48;56.33;102319.66;7396254;19;19999;-59
2022/10/27 02:18:33;;;;;;;10.90;5.63;;;;;;;14.46;55.75;102322.75;7392754;19;20349;-59
2022/10/27 02:21:02;;;;;;;13.20;5.53;;;;;;;14.42;55.91;102319.84;7392676;19;20002;-59
2022/10/27 02:23:29;;;;;;;13.50;5.88;;;;;;;14.31;56.20;102318.63;7394388;19;19999;-59
2022/10/27 02:26:03;;;;;;;10.90;6.07;;;;;;;14.29;56.31;102331.06;7395418;19;19994;-58
2022/10/27 02:28:37;;;;;;;14.80;5.72;;;;;;;14.32;56.20;102330.41;7393589;19;20068;-59
2022/10/27 02:31:04;;;;;;;10.00;5.93;;;;;;;14.25;55.90;102331.72;7393143;19;19998;-58
2022/10/27 02:33:29;;;;;;;10.65;5.13;;;;;;;14.26;56.12;102329.78;7395147;19;19995;-58
2022/10/27 02:35:56;;;;;;;10.30;5.90;;;;;;;14.30;55.85;102330.75;7393990;19;20083;-59
2022/10/27 02:38:22;;;;;;;13.55;5.82;;;;;;;14.21;56.17;102329.97;7391613;19;20025;-58
2022/10/27 02:40:48;;;;;;;13.55;5.93;;;;;;;14.18;55.89;102336.13;7392172;19;19999;-58
2022/10/27 02:43:13;;;;;;;12.85;5.50;;;;;;;14.16;55.91;102330.16;7394740;19;20066;-58
2022/10/27 02:45:39;;;;;;;13.18;5.35;;;;;;;14.06;56.02;102329.38;7392182;19;19995;-58
2022/10/27 02:48:04;;;;;;;14.18;6.20;;;;;;;14.01;55.76;102326.81;7392479;19;20427;-58
2022/10/27 02:50:31;;;;;;;11.20;5.38;;;;;;;13.99;56.03;102331.81;7391860;19;20449;-58
2022/10/27 02:52:56;;;;;;;10.80;5.40;;;;;;;13.85;56.31;102328.47;7393837;19;20006;-58
2022/10/27 02:55:22;;;;;;;9.55;4.68;;;;;;;13.82;56.11;102335.38;7393480;19;20548;-58
2022/10/27 02:57:47;;;;;;;9.80;5.03;;;;;;;13.83;55.86;102330.75;7365291;19;20347;-58
2022/10/27 03:00:14;;;;;;;10.90;5.50;;;;;;;13.86;55.83;102347.38;7390640;19;20478;-58
2022/10/27 03:02:39;;;;;;;13.35;5.88;;;;;;;13.93;56.10;102346.88;7392426;19;20332;-58
2022/10/27 03:05:05;;;;;;;15.85;5.95;;;;;;;13.96;55.64;102340.72;7393056;19;20013;-58
2022/10/27 03:07:31;;;;;;;11.23;5.55;;;;;;;13.98;55.66;102343.16;7393537;19;20021;-58
2022/10/27 03:09:56;;;;;;;14.27;5.75;;;;;;;13.92;56.04;102348.00;7389149;19;19997;-58
2022/10/27 03:12:22;;;;;;;10.23;5.85;;;;;;;14.02;55.81;102350.38;7391132;19;19998;-58
2022/10/27 03:14:47;;;;;;;14.27;6.43;;;;;;;14.12;55.86;102357.47;7393615;19;20006;-58
2022/10/27 03:17:33;;;;;;;14.95;6.43;;;;;;;14.10;56.09;102347.97;7393950;19;20078;-92
2022/10/27 03:20:17;;;;;;;13.48;5.65;;;;;;;14.07;55.67;102349.41;7387016;19;20018;-67
2022/10/27 03:22:43;;;;;;;13.45;5.20;;;;;;;13.96;56.05;102354.47;7397255;19;20340;-67
2022/10/27 03:25:14;;;;;;;11.25;5.63;;;;;;;13.93;55.82;102341.38;7392899;19;20008;-67
2022/10/27 03:27:41;;;;;;;11.25;4.85;;;;;;;13.78;56.25;102344.63;7391802;19;20062;-67
2022/10/27 03:30:13;;;;;;;11.85;5.18;;;;;;;13.86;56.14;102343.78;7392345;19;19994;-67
2022/10/27 03:32:39;;;;;;;12.20;5.85;;;;;;;13.90;55.76;102346.72;7393373;19;19998;-67
2022/10/27 03:35:05;;;;;;;13.15;5.80;;;;;;;13.78;55.92;102350.09;7393361;19;19995;-67
2022/10/27 03:37:31;;;;;;;11.32;5.15;;;;;;;13.69;56.11;102347.34;7390513;19;20010;-67
2022/10/27 03:39:56;;;;;;;10.77;5.30;;;;;;;13.71;55.63;102356.09;7390098;19;19998;-68
2022/10/27 03:42:22;;;;;;;11.63;5.13;;;;;;;13.73;55.61;102353.00;7393110;19;19998;-68
2022/10/27 03:44:47;;;;;;;11.60;5.53;;;;;;;13.75;55.67;102345.25;7391670;19;20013;-69
2022/10/27 03:47:13;;;;;;;10.40;4.97;;;;;;;13.77;55.43;102353.97;7392482;19;20022;-68
2022/10/27 03:49:38;;;;;;;15.80;5.70;;;;;;;13.68;55.86;102351.25;7388871;19;19998;-67
2022/10/27 03:52:04;;;;;;;11.73;5.38;;;;;;;13.68;55.60;102343.81;7392817;19;20002;-67
2022/10/27 03:54:30;;;;;;;13.30;5.95;;;;;;;13.65;55.65;102347.19;7392018;19;20014;-67
2022/10/27 03:56:57;;;;;;;10.88;5.38;;;;;;;13.55;56.03;102344.78;7392535;19;20002;-67
2022/10/27 03:59:23;;;;;;;13.15;6.35;;;;;;;13.60;55.92;102346.56;7389255;19;20002;-67
2022/10/27 04:01:48;;;;;;;12.73;5.50;;;;;;;13.60;55.85;102341.09;7391897;19;20005;-67
2022/10/27 04:04:14;;;;;;;11.57;5.35;;;;;;;13.55;55.95;102342.06;7390647;19;19995;-67
2022/10/27 04:06:39;;;;;;;12.70;5.70;;;;;;;13.65;55.81;102349.94;7391644;19;20009;-68
2022/10/27 04:09:05;;;;;;;10.77;5.60;;;;;;;13.63;55.77;102349.47;7387150;19;20006;-66
2022/10/27 04:11:31;;;;;;;11.40;5.53;;;;;;;13.67;55.77;102352.38;7389327;19;19991;-66
2022/10/27 04:13:56;;;;;;;11.93;6.22;;;;;;;13.59;56.00;102343.00;7390004;19;20070;-67
2022/10/27 04:16:25;;;;;;;14.38;6.10;;;;;;;13.69;55.52;102348.19;7390741;19;20014;-67
2022/10/27 04:18:51;;;;;;;12.00;5.78;;;;;;;13.61;55.71;102357.22;7387024;19;20074;-67
2022/10/27 04:21:16;;;;;;;9.60;5.40;;;;;;;13.69;55.56;102359.16;7387260;19;20463;-67
2022/10/27 04:23:42;;;;;;;12.93;5.72;;;;;;;13.69;55.72;102361.91;7391691;19;20355;-67
2022/10/27 04:26:15;;;;;;;12.07;5.55;;;;;;;13.60;55.66;102361.09;7390871;19;20003;-68
2022/10/27 04:28:40;;;;;;;13.63;5.53;;;;;;;13.65;55.66;102360.13;7387791;19;20505;-68
2022/10/27 04:31:06;;;;;;;13.25;5.90;;;;;;;13.48;56.06;102358.22;7390864;19;20050;-67
2022/10/27 04:33:31;;;;;;;11.38;5.43;;;;;;;13.56;55.80;102353.81;7390874;19;19998;-66
2022/10/27 04:35:57;;;;;;;13.30;5.43;;;;;;;13.59;55.49;102355.94;7390145;19;20007;-67
2022/10/27 04:38:22;;;;;;;11.82;5.35;;;;;;;13.53;56.01;102358.03;7385932;19;20002;-66
2022/10/27 04:40:48;;;;;;;10.95;6.18;;;;;;;13.61;55.75;102357.22;7387551;19;19998;-67
2022/10/27 04:43:14;;;;;;;11.05;5.22;;;;;;;13.59;55.75;102359.47;7390359;19;20022;-67
2022/10/27 04:45:41;;;;;;;13.23;6.50;;;;;;;13.64;55.66;102359.31;7387625;19;19995;-68
2022/10/27 04:48:06;;;;;;;13.35;6.95;;;;;;;13.77;55.47;102359.47;7390897;19;20466;-67
2022/10/27 04:50:32;;;;;;;12.10;5.90;;;;;;;13.74;55.39;102346.38;7390268;19;20002;-68
2022/10/27 04:53:00;;;;;;;18.38;8.63;;;;;;;13.79;55.20;102348.97;7389786;19;20018;-67
2022/10/27 04:55:27;;;;;;;16.40;9.13;;;;;;;13.60;55.60;102350.13;7391128;19;20642;-67
2022/10/27 04:57:53;;;;;;;15.60;8.23;;;;;;;13.63;55.93;102341.25;7390067;19;20009;-66
2022/10/27 05:00:26;;;;;;;15.98;7.20;;;;;;;13.71;55.92;102356.09;7389799;19;19999;-66
2022/10/27 05:02:57;;;;;;;11.80;6.75;;;;;;;13.79;55.56;102354.44;7388229;19;20499;-67
2022/10/27 05:05:24;;;;;;;13.07;6.68;;;;;;;13.84;55.29;102349.63;7390395;19;20018;-67
2022/10/27 05:07:59;;;;;;;11.27;6.15;;;;;;;13.80;55.62;102353.31;7388972;19;20014;-66
2022/10/27 05:10:26;;;;;;;15.15;7.70;;;;;;;13.73;55.96;102348.34;7389158;19;20002;-67
2022/10/27 05:12:51;;;;;;;12.88;6.53;;;;;;;13.66;56.19;102351.56;7390479;19;20074;-67
2022/10/27 05:15:17;;;;;;;14.93;6.72;;;;;;;13.73;55.97;102350.25;7389535;19;19995;-67
2022/10/27 05:17:43;;;;;;;13.55;7.25;;;;;;;13.77;55.71;102351.22;7387712;19;20002;-67
2022/10/27 05:20:09;;;;;;;11.10;6.28;;;;;;;13.83;55.58;102353.50;7387402;19;20014;-67
2022/10/27 05:22:35;;;;;;;11.57;6.40;;;;;;;13.77;55.73;102359.47;7395620;19;20002;-67
2022/10/27 05:25:00;;;;;;;12.75;7.03;;;;;;;13.75;55.78;102358.97;7395088;19;20463;-67
2022/10/27 05:27:26;;;;;;;15.20;7.05;;;;;;;13.76;55.79;102358.66;7395451;19;20419;-67
2022/10/27 05:29:51;;;;;;;16.42;7.25;;;;;;;13.67;55.68;102361.41;7395420;19;20012;-67
2022/10/27 05:32:17;;;;;;;116.78;54.38;;;;;;;13.72;55.59;102351.41;7397342;19;19998;-67
2022/10/27 05:34:42;;;;;;;51.30;26.50;;;;;;;13.78;55.20;102350.91;7396551;19;20006;-67
2022/10/27 05:37:08;;;;;;;20.45;11.07;;;;;;;13.72;55.68;102367.88;7397536;19;20299;-67
2022/10/27 05:39:34;;;;;;;19.83;9.98;;;;;;;13.66;55.58;102362.53;7393035;19;20022;-67
2022/10/27 05:41:59;;;;;;;16.35;8.60;;;;;;;13.63;55.94;102368.69;7396887;19;19994;-67
2022/10/27 05:44:25;;;;;;;17.10;7.80;;;;;;;13.56;56.24;102365.63;7396193;19;20483;-67
2022/10/27 05:46:50;;;;;;;16.95;8.13;;;;;;;13.64;56.09;102367.56;7395921;19;20026;-67
2022/10/27 05:49:16;;;;;;;16.77;8.07;;;;;;;13.71;55.71;102367.06;7390079;19;19998;-67
2022/10/27 05:51:41;;;;;;;13.00;7.70;;;;;;;13.63;55.88;102374.16;7390168;19;19998;-67
2022/10/27 05:54:07;;;;;;;14.25;8.10;;;;;;;13.60;55.92;102365.78;7393320;19;20001;-67
2022/10/27 05:56:33;;;;;;;15.55;8.27;;;;;;;13.54;56.05;102373.34;7393895;19;19994;-67
2022/10/27 05:58:58;;;;;;;14.80;7.53;;;;;;;13.57;55.94;102375.44;7392610;19;20510;-67
2022/10/27 06:01:24;;;;;;;22.33;12.77;;;;;;;13.59;55.55;102384.16;7394890;19;19999;-67
2022/10/27 06:03:49;;;;;;;22.08;11.10;;;;;;;13.50;55.94;102375.13;7393984;19;19994;-66
2022/10/27 06:06:15;;;;;;;21.75;12.20;;;;;;;13.56;56.08;102382.09;7394027;19;20006;-67
2022/10/27 06:08:40;;;;;;;53.67;32.70;;;;;;;13.66;55.83;102373.53;7391760;19;20074;-67
2022/10/27 06:11:06;;;;;;;44.22;36.85;;;;;;;13.82;55.33;102384.00;7394596;19;20006;-67
2022/10/27 06:13:32;;;;;;;20.55;13.57;;;;;;;13.85;55.36;102383.38;7393901;19;19995;-67
2022/10/27 06:15:57;;;;;;;17.23;9.60;;;;;;;13.92;55.20;102394.66;7395639;19;20305;-68
2022/10/27 06:18:23;;;;;;;19.60;9.60;;;;;;;13.86;55.15;102390.44;7390311;19;20011;-67
2022/10/27 06:20:48;;;;;;;18.15;9.82;;;;;;;13.90;55.39;102401.63;7393319;19;20014;-67
2022/10/27 06:23:14;;;;;;;15.18;8.60;;;;;;;13.84;55.67;102393.56;7395439;19;20011;-67
2022/10/27 06:25:40;;;;;;;17.95;9.05;;;;;;;13.87;55.49;102401.09;7393276;19;20010;-67
2022/10/27 06:28:05;;;;;;;17.90;8.55;;;;;;;13.93;55.70;102396.28;7390418;19;20032;-67
2022/10/27 06:30:31;;;;;;;15.27;8.68;;;;;;;13.97;55.60;102391.72;7394759;19;20479;-67
2022/10/27 06:32:56;;;;;;;19.05;9.43;;;;;;;13.94;55.48;102395.13;7391902;19;20011;-67
2022/10/27 06:35:22;;;;;;;16.23;10.05;;;;;;;13.97;55.71;102399.16;7393866;19;20011;-66
2022/10/27 06:37:48;;;;;;;14.57;8.30;;;;;;;13.96;55.84;102403.03;7392121;19;20007;-66
2022/10/27 06:40:15;;;;;;;17.13;8.90;;;;;;;14.05;55.86;102404.63;7391752;19;19998;-67
2022/10/27 06:42:42;;;;;;;20.45;9.63;;;;;;;14.19;55.24;102403.63;7392337;19;20009;-68
2022/10/27 06:45:09;;;;;;;17.73;10.07;;;;;;;14.15;55.65;102408.19;7394848;19;20370;-68
2022/10/27 06:47:35;;;;;;;19.08;9.50;;;;;;;13.99;55.82;102403.19;7391422;19;20025;-68
2022/10/27 06:50:00;;;;;;;21.63;10.75;;;;;;;13.91;55.96;102404.03;7392251;19;20384;-67
2022/10/27 06:52:26;;;;;;;20.55;11.63;;;;;;;13.86;56.04;102404.19;7394155;19;20006;-67
2022/10/27 06:54:52;;;;;;;16.23;9.55;;;;;;;13.89;56.10;102406.28;7393594;19;20317;-66
2022/10/27 06:57:17;;;;;;;20.52;11.88;;;;;;;13.91;55.86;102412.28;7394431;19;20062;-67
2022/10/27 06:59:43;;;;;;;20.80;11.40;;;;;;;13.83;56.23;102407.59;7389392;19;20087;-69
2022/10/27 07:02:11;;;;;;;19.13;10.98;;;;;;;13.83;56.57;102418.56;7391513;19;20013;-69
2022/10/27 07:04:37;;;;;;;20.02;11.75;;;;;;;13.98;56.00;102415.31;7394438;19;20007;-67
2022/10/27 07:07:02;;;;;;;18.30;11.13;;;;;;;13.96;56.13;102412.09;7395862;19;19995;-67
2022/10/27 07:09:28;;;;;;;18.35;10.77;;;;;;;13.98;56.27;102417.25;7390250;19;20102;-66
2022/10/27 07:11:54;;;;;;;18.90;11.40;;;;;;;13.99;56.27;102416.91;7394852;19;20513;-65
2022/10/27 07:14:19;;;;;;;22.40;11.80;;;;;;;14.02;56.25;102416.25;7395224;19;20029;-67
2022/10/27 07:16:45;;;;;;;21.90;11.25;;;;;;;14.03;56.25;102408.84;7392944;19;20462;-67
2022/10/27 07:19:11;;;;;;;21.17;12.20;;;;;;;14.11;56.03;102415.44;7391097;19;20019;-66
2022/10/27 07:21:36;;;;;;;18.27;11.30;;;;;;;14.14;55.97;102417.53;7395459;19;20006;-67
2022/10/27 07:24:02;;;;;;;20.25;11.85;;;;;;;14.22;55.59;102419.47;7394143;19;20022;-66
2022/10/27 07:26:28;;;;;;;18.85;11.02;;;;;;;14.19;55.88;102414.63;7392789;19;20007;-67
2022/10/27 07:28:53;;;;;;;20.25;11.38;;;;;;;14.14;56.23;102418.34;7391916;19;20005;-66
2022/10/27 07:31:19;;;;;;;22.15;11.57;;;;;;;14.16;56.21;102424.34;7392522;19;19998;-67
2022/10/27 07:33:45;;;;;;;22.35;12.05;;;;;;;14.25;55.82;102430.59;7394213;19;20010;-68
2022/10/27 07:36:11;;;;;;;21.20;10.48;;;;;;;14.30;55.64;102421.38;7392611;19;19994;-66
2022/10/27 07:38:37;;;;;;;20.83;10.63;;;;;;;14.37;55.48;102429.91;7391856;19;20012;-67
2022/10/27 07:41:04;;;;;;;19.35;10.13;;;;;;;14.41;55.87;102427.31;7390009;19;20603;-67
2022/10/27 07:43:30;;;;;;;22.75;10.80;;;;;;;14.48;55.51;102432.31;7392650;19;20012;-67
2022/10/27 07:45:56;;;;;;;16.90;9.85;;;;;;;14.54;55.60;102425.50;7390221;19;19999;-67
2022/10/27 07:48:22;;;;;;;18.30;9.98;;;;;;;14.53;55.56;102430.19;7390532;19;20003;-67
2022/10/27 07:50:48;;;;;;;21.08;10.70;;;;;;;14.51;55.44;102428.91;7391781;19;20013;-67
2022/10/27 07:53:14;;;;;;;20.48;10.35;;;;;;;14.57;55.63;102428.38;7392684;19;19998;-67
2022/10/27 07:55:39;;;;;;;20.77;10.10;;;;;;;14.63;55.31;102429.03;7392763;19;20498;-66
2022/10/27 07:58:11;;;;;;;15.70;9.88;;;;;;;14.67;55.34;102429.97;7390909;19;19995;-66
2022/10/27 08:00:40;;;;;;;18.23;8.65;;;;;;;14.80;55.12;102423.47;7390390;19;19998;-66
2022/10/27 08:03:09;;;;;;;17.33;9.30;;;;;;;14.85;54.94;102419.75;7392015;19;19999;-66
2022/10/27 08:05:36;;;;;;;16.40;9.20;;;;;;;14.84;55.17;102425.56;7390303;19;20002;-66
2022/10/27 08:08:04;;;;;;;16.75;9.45;;;;;;;14.79;55.42;102419.09;7388616;19;20357;-66
2022/10/27 08:10:32;;;;;;;17.23;9.07;;;;;;;14.92;55.30;102424.72;7389439;19;19999;-66
2022/10/27 08:12:58;;;;;;;18.67;9.20;;;;;;;15.00;55.02;102426.63;7391667;19;20466;-66
2022/10/27 08:15:24;;;;;;;17.20;8.23;;;;;;;15.08;54.72;102428.50;7389512;19;20002;-66
2022/10/27 08:17:55;;;;;;;15.30;7.78;;;;;;;15.13;54.87;102424.75;7391608;19;19999;-66
2022/10/27 08:20:22;;;;;;;16.38;8.02;;;;;;;15.08;54.91;102417.50;7388868;19;20039;-66
2022/10/27 08:22:58;;;;;;;17.08;7.10;;;;;;;15.22;54.90;102419.19;7392213;19;20002;-66
2022/10/27 08:25:25;;;;;;;19.20;7.05;;;;;;;15.20;54.87;102415.97;7391239;19;19990;-66
2022/10/27 08:27:51;;;;;;;17.35;6.75;;;;;;;15.24;54.58;102409.47;7390414;19;20006;-66
2022/10/27 08:30:17;;;;;;;15.18;6.82;;;;;;;15.38;54.18;102408.38;7390050;19;20005;-65
2022/10/27 08:32:43;;;;;;;15.57;7.00;;;;;;;15.44;54.37;102407.84;7392059;19;20003;-65
2022/10/27 08:35:08;;;;;;;13.50;6.65;;;;;;;15.53;54.24;102407.78;7390917;19;20624;-67
2022/10/27 08:37:34;;;;;;;17.55;6.30;;;;;;;15.57;54.22;102403.22;7388830;19;20006;-67
2022/10/27 08:39:59;;;;;;;14.70;6.75;;;;;;;15.57;54.33;102410.69;7388538;19;19995;-67
2022/10/27 08:42:34;;;;;;;14.88;5.82;;;;;;;15.54;54.13;102398.38;7391673;19;20401;-67
2022/10/27 08:45:16;;;;;;;14.48;6.50;;;;;;;15.67;53.78;102396.53;7390728;19;19998;-66
2022/10/27 08:47:46;;;;;;;13.57;6.50;;;;;;;15.81;53.93;102394.28;7389110;19;20022;-66
2022/10/27 08:50:20;;;;;;;13.63;6.25;;;;;;;15.90;53.65;102400.53;7388028;19;19994;-66
2022/10/27 08:52:53;;;;;;;13.93;6.55;;;;;;;15.86;53.91;102407.84;7390596;19;20486;-67
2022/10/27 08:55:24;;;;;;;17.50;6.63;;;;;;;15.88;53.74;102404.75;7388260;19;20001;-66
2022/10/27 08:58:11;;;;;;;16.48;6.85;;;;;;;15.92;53.58;102400.97;7393742;19;20013;-67
2022/10/27 09:00:50;;;;;;;14.75;6.20;;;;;;;15.99;53.88;102394.91;7395233;19;20074;-66
2022/10/27 09:03:43;;;;;;;16.38;6.95;;;;;;;16.04;53.79;102396.66;7397423;19;20463;-66
2022/10/27 09:06:22;;;;;;;15.48;6.68;;;;;;;16.08;53.66;102397.56;7398508;19;20003;-66
2022/10/27 09:09:06;;;;;;;14.73;7.05;;;;;;;16.11;53.63;102402.41;7392233;19;20522;-66
2022/10/27 09:12:01;;;;;;;14.82;6.22;;;;;;;16.16;53.53;102402.19;7397956;19;19991;-66
2022/10/27 09:14:47;;;;;;;15.32;6.82;;;;;;;16.24;53.41;102406.00;7397922;19;20050;-66
2022/10/27 09:17:22;;;;;;;13.00;6.57;;;;;;;16.28;53.55;102404.97;7396970;19;19995;-66
2022/10/27 09:20:00;;;;;;;12.38;6.50;;;;;;;16.32;53.19;102407.03;7392060;19;20007;-69
2022/10/27 09:22:29;;;;;;;15.68;6.40;;;;;;;16.37;53.36;102399.34;7395177;19;20390;-66
2022/10/27 09:25:04;;;;;;;14.88;6.20;;;;;;;16.38;53.18;102398.19;7397510;19;20070;-66
2022/10/27 09:27:30;;;;;;;17.70;6.03;;;;;;;16.46;52.99;102402.00;7396911;19;20007;-67
2022/10/27 09:30:03;;;;;;;13.23;5.65;;;;;;;16.49;52.71;102401.34;7395989;19;20011;-67
2022/10/27 09:32:35;;;;;;;12.50;6.03;;;;;;;16.52;53.22;102400.66;7395919;19;20010;-68
2022/10/27 09:35:08;;;;;;;10.30;5.60;;;;;;;16.49;53.25;102389.53;7395282;19;20002;-68
2022/10/27 09:37:40;;;;;;;15.93;6.05;;;;;;;16.51;53.22;102403.75;7395805;19;20007;-68
2022/10/27 09:40:11;;;;;;;13.77;5.90;;;;;;;16.51;53.08;102398.25;7392473;19;20001;-67
2022/10/27 09:42:37;;;;;;;13.95;6.15;;;;;;;16.54;53.09;102394.81;7396583;19;20014;-67
2022/10/27 09:45:13;;;;;;;12.88;5.68;;;;;;;16.58;53.26;102398.47;7394431;19;20007;-66
2022/10/27 09:47:41;;;;;;;12.90;5.60;;;;;;;16.60;53.46;102388.72;7395425;19;20002;-67
2022/10/27 09:50:23;;;;;;;12.82;5.38;;;;;;;16.70;53.09;102389.41;7395930;19;20073;-66
2022/10/27 09:52:49;;;;;;;15.80;6.18;;;;;;;16.75;53.22;102390.00;7394515;19;20004;-66
2022/10/27 09:55:19;;;;;;;13.38;5.45;;;;;;;16.79;53.22;102385.38;7394935;19;20002;-66
2022/10/27 09:57:47;;;;;;;15.25;5.25;;;;;;;16.83;53.15;102389.06;7395445;19;20483;-66
2022/10/27 10:00:23;;;;;;;11.15;4.63;;;;;;;16.91;52.97;102384.56;7393498;19;20070;-66
2022/10/27 10:03:20;;;;;;;12.65;5.40;;;;;;;16.98;52.97;102390.28;7394286;19;20014;-66
2022/10/27 10:05:56;;;;;;;11.88;4.93;;;;;;;17.06;52.94;102405.13;7396556;19;20096;-66
2022/10/27 10:08:24;;;;;;;9.40;4.47;;;;;;;17.08;53.18;102393.72;7393638;19;20438;-66
2022/10/27 10:11:03;;;;;;;16.08;4.97;;;;;;;17.09;53.11;102393.38;7395357;19;19991;-65
2022/10/27 10:13:31;;;;;;;12.43;4.28;;;;;;;17.16;52.64;102390.03;7395523;19;20026;-66
2022/10/27 10:16:13;;;;;;;12.25;4.80;;;;;;;17.20;52.82;102400.03;7395625;19;20006;-66
2022/10/27 10:18:42;;;;;;;11.00;4.93;;;;;;;17.20;52.48;102380.72;7392060;19;20030;-67
2022/10/27 10:21:10;;;;;;;11.40;4.40;;;;;;;17.14;52.71;102387.63;7393203;19;20011;-66
2022/10/27 10:23:48;;;;;;;9.57;4.32;;;;;;;17.06;52.83;102385.81;7393394;19;20030;-66
2022/10/27 10:26:18;;;;;;;11.25;4.50;;;;;;;16.96;53.17;102381.56;7395175;19;20002;-66
2022/10/27 10:28:45;;;;;;;15.20;5.38;;;;;;;16.88;53.13;102371.47;7392364;19;19995;-66
2022/10/27 10:31:20;;;;;;;9.10;4.20;;;;;;;16.99;52.81;102380.06;7395491;19;20040;-66
2022/10/27 10:33:46;;;;;;;13.05;4.40;;;;;;;17.06;52.46;102373.97;7395338;19;20272;-66
2022/10/27 10:36:28;;;;;;;9.10;4.30;;;;;;;17.09;52.94;102374.06;7392812;19;20017;-66
2022/10/27 10:38:58;;;;;;;10.70;4.70;;;;;;;17.16;52.77;102373.47;7391523;19;20499;-66
2022/10/27 10:41:26;;;;;;;14.25;4.18;;;;;;;17.25;52.67;102360.34;7391122;19;19998;-66
2022/10/27 10:44:10;;;;;;;12.95;4.10;;;;;;;17.30;52.43;102359.31;7394066;19;19998;-66
2022/10/27 10:46:39;;;;;;;12.55;3.97;;;;;;;17.34;52.62;102363.81;7394674;19;19998;-66
2022/10/27 10:49:35;;;;;;;9.30;3.72;;;;;;;17.43;52.20;102360.88;7391535;19;20003;-66
2022/10/27 10:52:15;;;;;;;10.55;3.92;;;;;;;17.47;52.40;102352.69;7393345;19;20446;-67
2022/10/27 10:54:43;;;;;;;13.73;3.80;;;;;;;17.50;52.17;102355.59;7394503;19;20011;-67
2022/10/27 10:57:34;;;;;;;8.98;3.33;;;;;;;17.56;52.23;102342.31;7393814;19;20066;-66
2022/10/27 11:00:03;;;;;;;8.23;3.83;;;;;;;17.58;52.22;102342.78;7390137;19;20270;-66
2022/10/27 11:02:31;;;;;;;11.70;3.83;;;;;;;17.60;52.15;102332.16;7394076;19;20066;-66
2022/10/27 11:05:09;;;;;;;9.35;3.67;;;;;;;17.69;52.10;102335.59;7393912;19;19995;-67
2022/10/27 11:07:35;;;;;;;11.43;4.18;;;;;;;17.74;52.05;102338.09;7393501;19;20002;-67
2022/10/27 11:10:21;;;;;;;7.88;3.28;;;;;;;17.84;51.83;102327.69;7391114;19;20027;-67
2022/10/27 11:13:01;;;;;;;7.68;3.70;;;;;;;17.81;51.98;102326.44;7394009;19;20007;-66
2022/10/27 11:15:35;;;;;;;10.02;4.10;;;;;;;17.80;51.86;102335.06;7394071;19;19991;-66
2022/10/27 11:18:39;;;;;;;8.80;3.22;;;;;;;17.82;51.86;102332.75;7391692;19;19998;-66
2022/10/27 11:21:14;;;;;;;10.07;3.45;;;;;;;17.86;51.91;102341.94;7389297;19;20010;-67
2022/10/27 11:23:42;;;;;;;9.15;3.30;;;;;;;17.85;51.82;102329.28;7393980;19;20074;-68
2022/10/27 11:26:10;;;;;;;7.78;3.40;;;;;;;17.82;51.65;102328.03;7393589;19;19999;-67
2022/10/27 11:28:48;;;;;;;8.80;3.58;;;;;;;17.92;51.63;102327.50;7388549;19;20006;-66